createdAt,value
2022-12-19T00:01:37.385Z,88.42
2022-12-19T00:04:08.834Z,88.51
2022-12-19T00:06:37.999Z,88.81
2022-12-19T00:09:11.615Z,88.69
2022-12-19T00:11:39.449Z,88.78
2022-12-19T00:14:07.646Z,89.05
2022-12-19T00:16:34.531Z,88.28
2022-12-19T00:19:02.282Z,88.53
2022-12-19T00:21:34.763Z,88.25
2022-12-19T00:24:06.591Z,88.87
2022-12-19T00:26:44.938Z,88.42
2022-12-19T00:29:14.415Z,88.28
2022-12-19T00:31:41.833Z,88.20
2022-12-19T00:34:09.709Z,88.03
2022-12-19T00:36:36.980Z,88.33
2022-12-19T00:39:07.959Z,88.68
2022-12-19T00:41:37.546Z,88.76
2022-12-19T00:44:12.211Z,88.88
2022-12-19T00:46:39.302Z,88.89
2022-12-19T00:49:07.360Z,88.65
2022-12-19T00:51:36.495Z,88.52
2022-12-19T00:54:06.759Z,88.39
2022-12-19T00:56:37.740Z,88.99
2022-12-19T00:59:07.418Z,88.78
2022-12-19T01:01:37.481Z,88.80
2022-12-19T01:06:54.711Z,88.60
2022-12-19T01:09:33.242Z,88.67
2022-12-19T01:12:18.700Z,88.94
2022-12-19T01:14:46.924Z,89.13
2022-12-19T01:17:13.851Z,88.69
2022-12-19T01:19:44.452Z,89.19
2022-12-19T01:22:13.047Z,88.50
2022-12-19T01:24:40.421Z,88.61
2022-12-19T01:27:07.631Z,88.99
2022-12-19T01:29:38.683Z,88.86
2022-12-19T01:32:19.650Z,88.82
2022-12-19T01:34:46.860Z,88.83
2022-12-19T01:37:17.452Z,88.97
2022-12-19T01:39:44.923Z,88.90
2022-12-19T01:42:19.559Z,88.87
2022-12-19T01:45:20.615Z,88.86
2022-12-19T01:47:56.326Z,89.02
2022-12-19T01:50:32.524Z,88.58
2022-12-19T01:53:01.411Z,88.50
2022-12-19T01:55:30.933Z,88.86
2022-12-19T01:58:00.253Z,88.47
2022-12-19T02:00:27.719Z,88.09
2022-12-19T02:03:02.640Z,88.47
2022-12-19T02:05:31.675Z,88.75
2022-12-19T02:07:59.080Z,88.87
2022-12-19T02:10:26.235Z,88.58
2022-12-19T02:12:53.308Z,89.05
2022-12-19T02:15:21.363Z,88.70
2022-12-19T02:18:04.566Z,88.49
2022-12-19T02:20:53.463Z,88.39
2022-12-19T02:23:35.552Z,88.10
2022-12-19T02:26:37.387Z,88.09
2022-12-19T02:29:27.528Z,88.25
2022-12-19T02:32:03.860Z,87.76
2022-12-19T02:34:44.792Z,87.86
2022-12-19T02:37:36.125Z,88.09
2022-12-19T02:40:15.014Z,88.42
2022-12-19T02:42:46.552Z,88.53
2022-12-19T02:45:20.781Z,88.69
2022-12-19T02:47:58.867Z,88.65
2022-12-19T02:50:46.606Z,88.80
2022-12-19T02:53:18.724Z,88.69
2022-12-19T02:56:10.533Z,89.08
2022-12-19T02:58:51.126Z,88.90
2022-12-19T03:01:42.435Z,88.78
2022-12-19T03:04:27.873Z,88.94
2022-12-19T03:07:10.413Z,89.23
2022-12-19T03:09:48.800Z,89.52
2022-12-19T03:12:24.668Z,89.59
2022-12-19T03:14:53.424Z,89.99
2022-12-19T03:17:20.248Z,89.61
2022-12-19T03:19:47.797Z,90.07
2022-12-19T03:22:14.883Z,90.47
2022-12-19T03:24:42.135Z,90.42
2022-12-19T03:27:13.625Z,90.90
2022-12-19T03:29:55.457Z,91.36
2022-12-19T03:32:24.529Z,91.73
2022-12-19T03:35:05.918Z,91.82
2022-12-19T03:37:37.862Z,91.54
2022-12-19T03:40:10.856Z,91.78
2022-12-19T03:42:59.685Z,91.86
2022-12-19T03:45:57.934Z,92.14
2022-12-19T03:48:35.409Z,92.28
2022-12-19T03:51:31.646Z,92.08
2022-12-19T03:54:21.748Z,92.39
2022-12-19T03:57:01.405Z,92.34
2022-12-19T03:59:46.576Z,92.52
2022-12-19T04:02:16.774Z,92.58
2022-12-19T04:04:47.244Z,92.61
2022-12-19T04:07:15.915Z,92.61
2022-12-19T04:09:46.067Z,92.72
2022-12-19T04:12:19.880Z,92.86
2022-12-19T04:14:48.334Z,92.74
2022-12-19T04:17:39.440Z,92.67
2022-12-19T04:20:21.089Z,93.21
2022-12-19T04:23:06.743Z,93.02
2022-12-19T04:25:40.355Z,93.13
2022-12-19T04:28:17.246Z,93.14
2022-12-19T04:30:45.264Z,93.18
2022-12-19T04:33:12.456Z,93.31
2022-12-19T04:35:39.435Z,93.16
2022-12-19T04:38:06.764Z,93.57
2022-12-19T04:40:40.852Z,93.47
2022-12-19T04:43:09.102Z,93.51
2022-12-19T04:45:36.258Z,93.64
2022-12-19T04:48:04.266Z,93.59
2022-12-19T04:50:33.126Z,93.82
2022-12-19T04:53:00.826Z,93.96
2022-12-19T04:55:27.653Z,93.65
2022-12-19T04:57:54.821Z,93.98
2022-12-19T05:00:21.824Z,93.98
2022-12-19T05:02:49.116Z,93.98
2022-12-19T05:05:18.154Z,93.87
2022-12-19T05:07:45.355Z,93.89
2022-12-19T05:10:12.149Z,93.77
2022-12-19T05:12:39.315Z,93.69
2022-12-19T05:15:06.771Z,93.83
2022-12-19T05:17:33.944Z,93.75
2022-12-19T05:20:00.837Z,93.84
2022-12-19T05:22:28.160Z,93.65
2022-12-19T05:24:55.006Z,93.53
2022-12-19T05:27:22.310Z,93.27
2022-12-19T05:29:49.165Z,93.32
2022-12-19T05:32:16.582Z,93.22
2022-12-19T05:34:43.464Z,93.22
2022-12-19T05:37:10.554Z,93.51
2022-12-19T05:39:37.575Z,93.46
2022-12-19T05:42:07.350Z,93.29
2022-12-19T05:44:37.795Z,93.56
2022-12-19T05:47:04.900Z,93.48
2022-12-19T05:49:31.959Z,93.58
2022-12-19T05:51:59.442Z,93.47
2022-12-19T05:54:26.539Z,93.32
2022-12-19T05:56:53.709Z,93.32
2022-12-19T05:59:20.618Z,93.40
2022-12-19T06:01:47.991Z,93.55
2022-12-19T06:04:15.101Z,93.59
2022-12-19T06:06:42.636Z,93.62
2022-12-19T06:09:28.184Z,93.62
2022-12-19T06:11:55.312Z,93.49
2022-12-19T06:14:22.743Z,93.59
2022-12-19T06:16:50.655Z,93.70
2022-12-19T06:19:20.342Z,93.79
2022-12-19T06:21:48.765Z,93.84
2022-12-19T06:24:16.355Z,93.74
2022-12-19T06:26:44.177Z,93.75
2022-12-19T06:29:11.042Z,93.67
2022-12-19T06:31:38.256Z,93.62
2022-12-19T06:34:05.462Z,93.73
2022-12-19T06:36:33.073Z,93.78
2022-12-19T06:38:59.994Z,93.86
2022-12-19T06:41:46.422Z,93.78
2022-12-19T06:44:14.998Z,93.66
2022-12-19T06:46:43.237Z,93.54
2022-12-19T06:49:10.633Z,93.26
2022-12-19T06:51:37.919Z,93.43
2022-12-19T06:54:05.458Z,93.43
2022-12-19T06:56:37.197Z,93.10
2022-12-19T06:59:05.166Z,93.05
2022-12-19T07:01:49.664Z,92.63
2022-12-19T07:04:41.633Z,92.60
2022-12-19T07:07:09.234Z,92.09
2022-12-19T07:09:36.768Z,92.10
2022-12-19T07:12:04.709Z,91.57
2022-12-19T07:14:32.755Z,91.86
2022-12-19T07:17:02.928Z,91.28
2022-12-19T07:19:32.340Z,91.19
2022-12-19T07:22:02.124Z,91.09
2022-12-19T07:24:29.929Z,91.24
2022-12-19T07:26:58.072Z,91.00
2022-12-19T07:29:25.541Z,90.73
2022-12-19T07:31:52.782Z,90.50
2022-12-19T07:34:20.486Z,90.56
2022-12-19T07:36:48.205Z,90.46
2022-12-19T07:39:15.556Z,90.40
2022-12-19T07:41:42.852Z,90.34
2022-12-19T07:44:09.839Z,90.04
2022-12-19T07:46:37.013Z,90.28
2022-12-19T07:49:03.948Z,90.02
2022-12-19T07:51:31.175Z,89.87
2022-12-19T07:53:58.312Z,89.65
2022-12-19T07:56:26.847Z,89.43
2022-12-19T07:58:53.819Z,89.10
2022-12-19T08:01:21.072Z,88.70
2022-12-19T08:03:47.964Z,88.80
2022-12-19T08:06:15.505Z,88.47
2022-12-19T08:08:42.368Z,88.58
2022-12-19T08:11:18.094Z,88.33
2022-12-19T08:13:46.935Z,88.12
2022-12-19T08:16:15.150Z,87.97
2022-12-19T08:18:42.288Z,88.14
2022-12-19T08:21:10.033Z,87.95
2022-12-19T08:23:38.796Z,88.31
2022-12-19T08:26:09.007Z,88.13
2022-12-19T08:28:37.176Z,88.12
2022-12-19T08:31:07.497Z,87.95
2022-12-19T08:33:34.749Z,87.62
2022-12-19T08:36:10.254Z,88.04
2022-12-19T08:38:37.822Z,87.78
2022-12-19T08:41:05.171Z,87.52
2022-12-19T08:43:32.398Z,87.23
2022-12-19T08:45:59.929Z,87.19
2022-12-19T08:48:27.370Z,87.15
2022-12-19T08:50:56.856Z,87.05
2022-12-19T08:53:26.596Z,86.96
2022-12-19T08:55:58.817Z,86.59
2022-12-19T08:58:27.543Z,86.30
2022-12-19T09:01:01.684Z,85.24
2022-12-19T09:03:42.734Z,85.20
2022-12-19T09:06:20.379Z,85.24
2022-12-19T09:09:06.118Z,84.49
2022-12-19T09:11:36.108Z,84.62
2022-12-19T09:14:14.164Z,84.48
2022-12-19T09:16:42.824Z,83.99
2022-12-19T09:19:15.421Z,83.85
2022-12-19T09:21:42.862Z,83.49
2022-12-19T09:24:10.392Z,82.29
2022-12-19T09:26:42.253Z,82.66
2022-12-19T09:29:20.769Z,82.48
2022-12-19T09:31:55.699Z,82.50
2022-12-19T09:34:36.770Z,81.84
2022-12-19T09:37:15.811Z,81.17
2022-12-19T09:39:48.091Z,81.25
2022-12-19T09:42:31.594Z,81.52
2022-12-19T09:45:33.111Z,81.39
2022-12-19T09:48:01.733Z,81.53
2022-12-19T09:51:09.676Z,80.63
2022-12-19T09:54:02.422Z,80.36
2022-12-19T09:56:33.998Z,80.92
2022-12-19T09:59:31.561Z,80.81
2022-12-19T10:02:47.677Z,80.15
2022-12-19T10:07:06.845Z,80.06
2022-12-19T10:09:22.312Z,79.90
2022-12-19T10:12:45.819Z,79.30
2022-12-19T10:15:30.385Z,79.15
2022-12-19T10:18:16.139Z,78.54
2022-12-19T10:21:04.082Z,78.80
2022-12-19T10:23:57.794Z,78.72
2022-12-19T10:26:50.630Z,77.81
2022-12-19T10:29:26.828Z,77.48
2022-12-19T10:32:14.255Z,76.68
2022-12-19T10:34:44.903Z,76.94
2022-12-19T10:37:48.927Z,76.98
2022-12-19T10:40:22.254Z,76.01
2022-12-19T10:43:11.489Z,76.29
2022-12-19T10:45:48.197Z,75.95
2022-12-19T10:48:22.022Z,75.92
2022-12-19T10:50:55.021Z,75.92
2022-12-19T10:53:30.364Z,76.06
2022-12-19T10:56:33.219Z,75.60
2022-12-19T10:59:05.220Z,74.84
2022-12-19T11:01:38.216Z,74.29
2022-12-19T11:04:29.525Z,73.84
2022-12-19T11:07:03.542Z,73.82
2022-12-19T11:09:39.570Z,73.43
2022-12-19T11:13:16.577Z,73.15
2022-12-19T11:19:39.694Z,72.53
2022-12-19T11:27:34.408Z,72.93
2022-12-19T11:29:18.198Z,73.34
2022-12-19T11:29:47.128Z,72.27
2022-12-19T11:30:45.738Z,72.35
2022-12-19T11:32:44.484Z,71.95
2022-12-19T11:35:24.368Z,71.99
2022-12-19T11:37:56.263Z,71.76
2022-12-19T11:40:48.616Z,71.83
2022-12-19T11:43:44.640Z,71.65
2022-12-19T11:46:22.456Z,72.01
2022-12-19T11:49:09.032Z,71.23
2022-12-19T11:52:09.112Z,71.50
2022-12-19T11:55:17.172Z,71.36
2022-12-19T11:57:45.831Z,70.87
2022-12-19T12:00:21.662Z,71.34
2022-12-19T12:03:04.651Z,71.03
2022-12-19T12:05:35.045Z,71.38
2022-12-19T12:10:07.711Z,71.12
2022-12-19T12:16:13.595Z,71.15
2022-12-19T12:22:49.947Z,71.29
2022-12-19T12:24:06.254Z,71.24
2022-12-19T12:31:39.253Z,71.50
2022-12-19T12:31:41.757Z,71.75
2022-12-19T12:31:44.252Z,71.78
2022-12-19T12:31:46.586Z,71.51
2022-12-19T12:35:51.824Z,72.12
2022-12-19T12:39:33.345Z,73.13
2022-12-19T12:42:31.153Z,73.27
2022-12-19T12:45:01.059Z,73.70
2022-12-19T12:47:29.120Z,73.34
2022-12-19T12:50:03.296Z,74.18
2022-12-19T12:52:36.104Z,74.35
2022-12-19T12:55:06.369Z,74.39
2022-12-19T12:57:36.704Z,74.49
2022-12-19T13:00:28.977Z,74.82
2022-12-19T13:03:13.839Z,75.06
2022-12-19T13:06:06.404Z,75.55
2022-12-19T13:08:39.419Z,75.88
2022-12-19T13:11:37.556Z,76.70
2022-12-19T13:14:26.032Z,76.91
2022-12-19T13:16:54.258Z,77.12
2022-12-19T13:19:28.901Z,77.44
2022-12-19T13:22:07.557Z,77.50
2022-12-19T13:24:55.307Z,77.41
2022-12-19T13:27:22.726Z,77.28
2022-12-19T13:30:12.653Z,77.59
2022-12-19T13:32:39.876Z,77.61
2022-12-19T13:36:15.499Z,77.88
2022-12-19T13:39:48.075Z,78.26
2022-12-19T13:40:58.045Z,78.40
2022-12-19T13:43:47.779Z,79.27
2022-12-19T13:46:46.037Z,79.20
2022-12-19T13:49:31.852Z,79.76
2022-12-19T13:52:03.631Z,79.96
2022-12-19T13:54:36.552Z,79.98
2022-12-19T13:57:09.112Z,80.34
2022-12-19T13:59:39.884Z,80.67
2022-12-19T14:02:16.070Z,80.66
2022-12-19T14:04:45.419Z,81.20
2022-12-19T14:07:36.486Z,80.87
2022-12-19T14:11:41.106Z,81.85
2022-12-19T14:13:45.073Z,81.74
2022-12-19T14:16:00.880Z,81.59
2022-12-19T14:18:43.033Z,81.75
2022-12-19T14:22:06.316Z,82.10
2022-12-19T14:24:09.463Z,81.82
2022-12-19T14:28:24.278Z,81.75
2022-12-19T14:30:19.862Z,82.15
2022-12-19T14:33:39.717Z,81.79
2022-12-19T14:36:07.422Z,81.93
2022-12-19T14:39:19.619Z,81.94
2022-12-19T14:41:08.397Z,81.97
2022-12-19T14:44:00.581Z,82.16
2022-12-19T14:52:51.779Z,82.17
2022-12-19T14:54:09.567Z,82.23
2022-12-19T14:54:30.698Z,82.66
2022-12-19T14:56:03.897Z,82.77
2022-12-19T14:58:52.466Z,82.81
2022-12-19T15:01:28.997Z,83.11
2022-12-19T15:04:53.370Z,83.14
2022-12-19T15:07:11.952Z,82.99
2022-12-19T15:11:04.629Z,82.83
2022-12-19T15:14:57.649Z,83.26
2022-12-19T15:16:04.688Z,83.75
2022-12-19T15:18:42.855Z,83.53
2022-12-19T15:21:13.296Z,83.52
2022-12-19T15:23:41.340Z,83.64
2022-12-19T15:26:14.319Z,83.79
2022-12-19T15:28:52.777Z,83.94
2022-12-19T15:31:38.376Z,83.40
2022-12-19T15:34:34.945Z,83.81
2022-12-19T15:37:03.979Z,83.71
2022-12-19T15:39:31.299Z,83.94
2022-12-19T15:42:00.374Z,84.04
2022-12-19T15:44:32.250Z,83.84
2022-12-19T15:47:00.819Z,83.72
2022-12-19T15:49:28.360Z,83.61
2022-12-19T15:51:55.468Z,83.95
2022-12-19T15:54:47.985Z,83.81
2022-12-19T15:57:24.354Z,84.06
2022-12-19T15:59:52.118Z,83.80
2022-12-19T16:02:24.204Z,83.88
2022-12-19T16:04:55.687Z,84.15
2022-12-19T16:07:29.244Z,84.00
2022-12-19T16:09:56.397Z,83.96
2022-12-19T16:12:39.179Z,83.77
2022-12-19T16:15:13.942Z,83.68
2022-12-19T16:17:40.789Z,83.56
2022-12-19T16:20:39.580Z,83.71
2022-12-19T16:23:08.063Z,84.03
2022-12-19T16:25:42.316Z,83.73
2022-12-19T16:28:17.947Z,84.20
2022-12-19T16:30:45.323Z,84.03
2022-12-19T16:33:19.994Z,83.60
2022-12-19T16:36:04.097Z,83.60
2022-12-19T16:38:33.462Z,83.82
2022-12-19T16:41:01.783Z,83.96
2022-12-19T16:43:33.474Z,83.78
2022-12-19T16:46:01.779Z,84.02
2022-12-19T16:48:29.943Z,84.29
2022-12-19T16:50:59.024Z,84.15
2022-12-19T16:53:26.018Z,84.13
2022-12-19T16:55:55.679Z,84.17
2022-12-19T16:58:26.350Z,84.34
2022-12-19T17:00:55.212Z,84.53
2022-12-19T17:03:37.271Z,84.41
2022-12-19T17:06:04.860Z,84.52
2022-12-19T17:08:32.511Z,84.56
2022-12-19T17:10:59.844Z,84.38
2022-12-19T17:13:26.941Z,84.41
2022-12-19T17:15:57.076Z,84.26
2022-12-19T17:18:30.968Z,83.91
2022-12-19T17:20:58.360Z,83.43
2022-12-19T17:23:26.579Z,83.58
2022-12-19T17:25:55.057Z,83.28
2022-12-19T17:28:22.586Z,83.46
2022-12-19T17:30:57.511Z,83.70
2022-12-19T17:33:32.970Z,83.46
2022-12-19T17:36:04.432Z,83.07
2022-12-19T17:38:31.576Z,83.19
2022-12-19T17:40:59.363Z,83.01
2022-12-19T17:43:26.464Z,83.44
2022-12-19T17:45:53.938Z,83.14
2022-12-19T17:48:23.612Z,83.43
2022-12-19T17:50:51.273Z,83.35
2022-12-19T17:53:18.250Z,83.38
2022-12-19T17:55:45.618Z,83.38
2022-12-19T17:58:13.038Z,83.24
2022-12-19T18:00:41.158Z,83.12
2022-12-19T18:03:26.775Z,83.36
2022-12-19T18:05:55.487Z,83.16
2022-12-19T18:08:31.348Z,83.10
2022-12-19T18:11:04.208Z,83.00
2022-12-19T18:13:32.032Z,82.95
2022-12-19T18:16:03.687Z,83.24
2022-12-19T18:18:34.739Z,83.03
2022-12-19T18:21:03.404Z,83.19
2022-12-19T18:23:30.929Z,83.38
2022-12-19T18:26:01.840Z,82.84
2022-12-19T18:28:29.672Z,82.91
2022-12-19T18:31:28.112Z,83.10
2022-12-19T18:34:00.841Z,82.84
2022-12-19T18:36:40.304Z,82.78
2022-12-19T18:39:25.246Z,82.98
2022-12-19T18:41:53.600Z,82.93
2022-12-19T18:44:22.622Z,83.14
2022-12-19T18:46:51.523Z,83.25
2022-12-19T18:49:19.614Z,83.27
2022-12-19T18:52:06.598Z,83.37
2022-12-19T18:54:33.892Z,83.57
2022-12-19T18:57:00.996Z,82.91
2022-12-19T18:59:28.313Z,83.05
2022-12-19T19:01:55.914Z,83.09
2022-12-19T19:04:23.252Z,82.94
2022-12-19T19:06:52.628Z,82.66
2022-12-19T19:09:21.459Z,82.52
2022-12-19T19:12:16.517Z,82.39
2022-12-19T19:14:43.820Z,82.40
2022-12-19T19:17:24.274Z,82.42
2022-12-19T19:19:51.563Z,82.47
2022-12-19T19:22:18.416Z,82.42
2022-12-19T19:24:45.608Z,82.09
2022-12-19T19:27:12.565Z,82.58
2022-12-19T19:29:40.107Z,82.30
2022-12-19T19:32:07.176Z,82.20
2022-12-19T19:34:37.461Z,82.17
2022-12-19T19:37:08.046Z,82.37
2022-12-19T19:39:35.411Z,82.58
2022-12-19T19:42:02.916Z,82.28
2022-12-19T19:44:30.273Z,82.05
2022-12-19T19:46:57.407Z,82.05
2022-12-19T19:49:24.715Z,82.33
2022-12-19T19:51:54.343Z,82.55
2022-12-19T19:54:25.806Z,82.47
2022-12-19T19:56:52.764Z,82.53
2022-12-19T19:59:21.378Z,82.59
2022-12-19T20:01:48.623Z,82.30
2022-12-19T20:04:15.851Z,81.72
2022-12-19T20:06:42.833Z,81.73
2022-12-19T20:09:10.072Z,81.60
2022-12-19T20:11:37.022Z,82.29
2022-12-19T20:14:04.612Z,81.66
2022-12-19T20:16:31.647Z,81.68
2022-12-19T20:18:59.981Z,81.62
2022-12-19T20:21:27.543Z,81.50
2022-12-19T20:23:54.828Z,81.42
2022-12-19T20:26:22.112Z,80.76
2022-12-19T20:28:51.390Z,80.64
2022-12-19T20:31:19.423Z,80.36
2022-12-19T20:33:48.223Z,80.11
2022-12-19T20:36:16.095Z,79.86
2022-12-19T20:38:43.509Z,80.27
2022-12-19T20:41:10.497Z,80.09
2022-12-19T20:43:38.748Z,80.42
2022-12-19T20:46:17.990Z,80.28
2022-12-19T20:48:46.641Z,80.40
2022-12-19T20:51:14.752Z,80.44
2022-12-19T20:53:42.836Z,80.38
2022-12-19T20:56:13.257Z,80.26
2022-12-19T20:58:40.419Z,80.42
2022-12-19T21:01:16.252Z,80.06
2022-12-19T21:03:45.030Z,79.09
2022-12-19T21:06:13.673Z,79.23
2022-12-19T21:08:41.344Z,79.36
2022-12-19T21:11:09.489Z,79.23
2022-12-19T21:13:38.049Z,79.23
2022-12-19T21:16:08.587Z,79.16
2022-12-19T21:18:41.046Z,79.16
2022-12-19T21:21:11.316Z,78.99
2022-12-19T21:23:38.445Z,79.12
2022-12-19T21:26:05.727Z,79.24
2022-12-19T21:28:33.325Z,79.17
2022-12-19T21:31:03.051Z,79.07
2022-12-19T21:33:30.646Z,79.47
2022-12-19T21:35:57.865Z,79.81
2022-12-19T21:38:25.203Z,78.99
2022-12-19T21:40:52.060Z,79.22
2022-12-19T21:43:19.381Z,79.52
2022-12-19T21:45:46.497Z,79.12
2022-12-19T21:48:13.635Z,79.79
2022-12-19T21:50:40.615Z,79.68
2022-12-19T21:53:07.741Z,79.96
2022-12-19T21:55:34.564Z,80.45
2022-12-19T21:58:02.036Z,80.00
2022-12-19T22:00:29.103Z,80.30
2022-12-19T22:03:13.468Z,80.26
2022-12-19T22:05:41.577Z,80.56
2022-12-19T22:08:09.765Z,80.29
2022-12-19T22:10:39.595Z,80.20
2022-12-19T22:13:06.707Z,80.07
2022-12-19T22:15:35.626Z,80.53
2022-12-19T22:18:21.634Z,80.90
2022-12-19T22:20:49.103Z,80.97
2022-12-19T22:23:15.895Z,81.71
2022-12-19T22:25:43.081Z,81.95
2022-12-19T22:28:10.102Z,82.35
2022-12-19T22:30:37.278Z,82.21
2022-12-19T22:33:04.560Z,82.86
2022-12-19T22:35:33.893Z,83.03
2022-12-19T22:38:00.782Z,83.30
2022-12-19T22:40:27.879Z,83.62
2022-12-19T22:42:54.753Z,84.18
2022-12-19T22:45:21.907Z,84.30
2022-12-19T22:47:48.796Z,84.29
2022-12-19T22:50:16.003Z,84.24
2022-12-19T22:52:42.933Z,84.82
2022-12-19T22:55:10.293Z,84.78
2022-12-19T22:57:37.096Z,84.64
2022-12-19T23:00:17.022Z,85.28
2022-12-19T23:02:44.052Z,84.92
2022-12-19T23:05:11.475Z,85.06
2022-12-19T23:07:38.397Z,85.45
2022-12-19T23:10:06.461Z,85.66
2022-12-19T23:12:33.329Z,85.96
2022-12-19T23:15:00.490Z,85.87
2022-12-19T23:17:27.309Z,86.31
2022-12-19T23:19:54.539Z,86.14
2022-12-19T23:22:21.830Z,86.71
2022-12-19T23:24:49.205Z,87.21
2022-12-19T23:27:16.392Z,86.92
2022-12-19T23:29:43.609Z,86.99
2022-12-19T23:32:10.726Z,87.38
2022-12-19T23:34:37.962Z,86.82
2022-12-19T23:37:12.789Z,87.74
2022-12-19T23:39:40.193Z,87.84
2022-12-19T23:42:07.317Z,88.17
2022-12-19T23:44:34.549Z,88.28
2022-12-19T23:47:03.880Z,88.57
2022-12-19T23:49:33.323Z,88.60
2022-12-19T23:52:00.160Z,89.19
2022-12-19T23:54:27.386Z,89.14
2022-12-19T23:56:54.280Z,89.31
2022-12-19T23:59:21.496Z,89.56
